sensor_id;sensor_type;location;lat;lon;timestamp;P1;durP1;ratioP1;P2;durP2;ratioP2
72198;SDS011;60103;51.014;16.992;2023-06-22T00:01:05;18.00;;;11.70;;
72198;SDS011;60103;51.014;16.992;2023-06-22T00:03:34;17.00;;;11.10;;
72198;SDS011;60103;51.014;16.992;2023-06-22T00:06:03;17.20;;;11.70;;
72198;SDS011;60103;51.014;16.992;2023-06-22T00:08:32;15.80;;;11.30;;
72198;SDS011;60103;51.014;16.992;2023-06-22T00:11:01;19.00;;;11.40;;
72198;SDS011;60103;51.014;16.992;2023-06-22T00:13:30;17.20;;;11.70;;
72198;SDS011;60103;51.014;16.992;2023-06-22T00:15:58;17.70;;;12.10;;
72198;SDS011;60103;51.014;16.992;2023-06-22T00:18:27;15.70;;;11.30;;
72198;SDS011;60103;51.014;16.992;2023-06-22T00:20:59;16.00;;;10.70;;
72198;SDS011;60103;51.014;16.992;2023-06-22T00:23:28;17.20;;;11.20;;
72198;SDS011;60103;51.014;16.992;2023-06-22T00:25:57;16.50;;;11.00;;
72198;SDS011;60103;51.014;16.992;2023-06-22T00:28:26;18.80;;;11.40;;
72198;SDS011;60103;51.014;16.992;2023-06-22T00:30:55;17.10;;;10.50;;
72198;SDS011;60103;51.014;16.992;2023-06-22T00:33:26;15.40;;;10.50;;
72198;SDS011;60103;51.014;16.992;2023-06-22T00:35:56;15.70;;;10.20;;
72198;SDS011;60103;51.014;16.992;2023-06-22T00:38:25;17.20;;;11.20;;
72198;SDS011;60103;51.014;16.992;2023-06-22T00:40:55;16.10;;;10.80;;
72198;SDS011;60103;51.014;16.992;2023-06-22T00:43:24;18.10;;;12.00;;
72198;SDS011;60103;51.014;16.992;2023-06-22T00:45:54;15.40;;;9.70;;
72198;SDS011;60103;51.014;16.992;2023-06-22T00:48:25;18.90;;;11.70;;
72198;SDS011;60103;51.014;16.992;2023-06-22T00:50:54;16.20;;;10.70;;
72198;SDS011;60103;51.014;16.992;2023-06-22T00:53:24;17.50;;;11.60;;
72198;SDS011;60103;51.014;16.992;2023-06-22T00:55:54;16.60;;;10.90;;
72198;SDS011;60103;51.014;16.992;2023-06-22T00:58:23;17.10;;;11.30;;
72198;SDS011;60103;51.014;16.992;2023-06-22T01:00:53;15.40;;;10.90;;
72198;SDS011;60103;51.014;16.992;2023-06-22T01:03:23;16.70;;;10.90;;
72198;SDS011;60103;51.014;16.992;2023-06-22T01:05:51;18.20;;;11.00;;
72198;SDS011;60103;51.014;16.992;2023-06-22T01:08:27;15.80;;;11.20;;
72198;SDS011;60103;51.014;16.992;2023-06-22T01:16:44;17.00;;;11.90;;
72198;SDS011;60103;51.014;16.992;2023-06-22T01:22:07;17.80;;;11.90;;
72198;SDS011;60103;51.014;16.992;2023-06-22T01:27:55;20.20;;;12.80;;
72198;SDS011;60103;51.014;16.992;2023-06-22T01:30:45;18.80;;;12.50;;
72198;SDS011;60103;51.014;16.992;2023-06-22T01:33:14;17.30;;;11.60;;
72198;SDS011;60103;51.014;16.992;2023-06-22T01:35:44;16.30;;;10.90;;
72198;SDS011;60103;51.014;16.992;2023-06-22T01:38:13;15.80;;;10.40;;
72198;SDS011;60103;51.014;16.992;2023-06-22T01:40:42;16.40;;;11.60;;
72198;SDS011;60103;51.014;16.992;2023-06-22T01:43:10;15.70;;;10.70;;
72198;SDS011;60103;51.014;16.992;2023-06-22T01:45:39;16.00;;;11.10;;
72198;SDS011;60103;51.014;16.992;2023-06-22T01:48:08;17.70;;;11.80;;
72198;SDS011;60103;51.014;16.992;2023-06-22T01:50:37;15.50;;;10.30;;
72198;SDS011;60103;51.014;16.992;2023-06-22T01:53:06;17.30;;;10.70;;
72198;SDS011;60103;51.014;16.992;2023-06-22T01:55:35;16.90;;;10.70;;
72198;SDS011;60103;51.014;16.992;2023-06-22T01:58:04;17.00;;;11.70;;
72198;SDS011;60103;51.014;16.992;2023-06-22T02:00:33;16.10;;;11.30;;
72198;SDS011;60103;51.014;16.992;2023-06-22T02:03:08;18.70;;;11.50;;
72198;SDS011;60103;51.014;16.992;2023-06-22T02:05:43;17.10;;;11.50;;
72198;SDS011;60103;51.014;16.992;2023-06-22T02:08:20;17.50;;;11.60;;
72198;SDS011;60103;51.014;16.992;2023-06-22T02:10:51;16.80;;;11.20;;
72198;SDS011;60103;51.014;16.992;2023-06-22T02:13:21;17.70;;;10.90;;
72198;SDS011;60103;51.014;16.992;2023-06-22T02:15:50;17.50;;;11.50;;
72198;SDS011;60103;51.014;16.992;2023-06-22T02:18:19;17.10;;;10.90;;
72198;SDS011;60103;51.014;16.992;2023-06-22T02:20:48;19.20;;;11.50;;
72198;SDS011;60103;51.014;16.992;2023-06-22T02:23:17;18.90;;;11.70;;
72198;SDS011;60103;51.014;16.992;2023-06-22T02:25:46;17.80;;;11.90;;
72198;SDS011;60103;51.014;16.992;2023-06-22T02:28:14;18.30;;;11.50;;
72198;SDS011;60103;51.014;16.992;2023-06-22T02:30:45;17.10;;;12.20;;
72198;SDS011;60103;51.014;16.992;2023-06-22T02:33:13;21.00;;;10.60;;
72198;SDS011;60103;51.014;16.992;2023-06-22T02:35:42;18.70;;;11.80;;
72198;SDS011;60103;51.014;16.992;2023-06-22T02:38:15;18.30;;;11.70;;
72198;SDS011;60103;51.014;16.992;2023-06-22T02:40:46;18.40;;;12.00;;
72198;SDS011;60103;51.014;16.992;2023-06-22T02:43:14;18.50;;;12.20;;
72198;SDS011;60103;51.014;16.992;2023-06-22T02:45:44;17.20;;;11.90;;
72198;SDS011;60103;51.014;16.992;2023-06-22T02:48:13;18.20;;;11.80;;
72198;SDS011;60103;51.014;16.992;2023-06-22T02:50:42;18.00;;;11.80;;
72198;SDS011;60103;51.014;16.992;2023-06-22T02:53:11;18.40;;;11.40;;
72198;SDS011;60103;51.014;16.992;2023-06-22T02:55:41;20.00;;;11.80;;
72198;SDS011;60103;51.014;16.992;2023-06-22T02:58:10;20.00;;;12.00;;
72198;SDS011;60103;51.014;16.992;2023-06-22T03:00:39;17.90;;;11.90;;
72198;SDS011;60103;51.014;16.992;2023-06-22T03:03:07;16.20;;;11.10;;
72198;SDS011;60103;51.014;16.992;2023-06-22T03:05:36;17.70;;;11.80;;
72198;SDS011;60103;51.014;16.992;2023-06-22T03:08:05;17.90;;;11.70;;
72198;SDS011;60103;51.014;16.992;2023-06-22T03:10:34;19.00;;;11.90;;
72198;SDS011;60103;51.014;16.992;2023-06-22T03:13:03;17.00;;;11.10;;
72198;SDS011;60103;51.014;16.992;2023-06-22T03:15:33;17.60;;;10.80;;
72198;SDS011;60103;51.014;16.992;2023-06-22T03:18:02;19.50;;;12.10;;
72198;SDS011;60103;51.014;16.992;2023-06-22T03:20:31;19.10;;;11.70;;
72198;SDS011;60103;51.014;16.992;2023-06-22T03:23:01;19.50;;;12.50;;
72198;SDS011;60103;51.014;16.992;2023-06-22T03:25:31;19.90;;;11.80;;
72198;SDS011;60103;51.014;16.992;2023-06-22T03:28:02;22.10;;;11.70;;
72198;SDS011;60103;51.014;16.992;2023-06-22T03:30:31;20.20;;;12.20;;
72198;SDS011;60103;51.014;16.992;2023-06-22T03:33:01;20.30;;;12.10;;
72198;SDS011;60103;51.014;16.992;2023-06-22T03:35:30;20.10;;;12.40;;
72198;SDS011;60103;51.014;16.992;2023-06-22T03:37:59;18.60;;;12.60;;
72198;SDS011;60103;51.014;16.992;2023-06-22T03:40:28;16.60;;;11.30;;
72198;SDS011;60103;51.014;16.992;2023-06-22T03:42:59;20.00;;;10.90;;
72198;SDS011;60103;51.014;16.992;2023-06-22T03:45:29;19.00;;;11.70;;
72198;SDS011;60103;51.014;16.992;2023-06-22T03:47:58;21.10;;;13.10;;
72198;SDS011;60103;51.014;16.992;2023-06-22T03:50:27;18.30;;;11.30;;
72198;SDS011;60103;51.014;16.992;2023-06-22T03:52:57;17.80;;;11.40;;
72198;SDS011;60103;51.014;16.992;2023-06-22T03:55:26;19.20;;;11.30;;
72198;SDS011;60103;51.014;16.992;2023-06-22T03:57:54;16.90;;;11.70;;
72198;SDS011;60103;51.014;16.992;2023-06-22T04:00:25;17.10;;;11.60;;
72198;SDS011;60103;51.014;16.992;2023-06-22T04:02:54;18.70;;;12.20;;
72198;SDS011;60103;51.014;16.992;2023-06-22T04:05:23;18.00;;;11.30;;
72198;SDS011;60103;51.014;16.992;2023-06-22T04:07:52;15.60;;;10.40;;
72198;SDS011;60103;51.014;16.992;2023-06-22T04:10:21;19.40;;;12.30;;
72198;SDS011;60103;51.014;16.992;2023-06-22T04:12:50;18.40;;;12.10;;
72198;SDS011;60103;51.014;16.992;2023-06-22T04:15:19;18.60;;;12.30;;
72198;SDS011;60103;51.014;16.992;2023-06-22T04:17:47;19.30;;;11.70;;
72198;SDS011;60103;51.014;16.992;2023-06-22T04:20:16;17.70;;;11.90;;
72198;SDS011;60103;51.014;16.992;2023-06-22T04:22:45;18.50;;;11.00;;
72198;SDS011;60103;51.014;16.992;2023-06-22T04:25:14;16.70;;;10.40;;
72198;SDS011;60103;51.014;16.992;2023-06-22T04:27:43;15.30;;;10.10;;
72198;SDS011;60103;51.014;16.992;2023-06-22T04:30:15;17.00;;;11.70;;
72198;SDS011;60103;51.014;16.992;2023-06-22T04:32:45;17.40;;;12.60;;
72198;SDS011;60103;51.014;16.992;2023-06-22T04:35:14;17.80;;;10.80;;
72198;SDS011;60103;51.014;16.992;2023-06-22T04:37:44;20.50;;;12.80;;
72198;SDS011;60103;51.014;16.992;2023-06-22T04:40:16;19.10;;;12.60;;
72198;SDS011;60103;51.014;16.992;2023-06-22T04:42:46;17.70;;;11.90;;
72198;SDS011;60103;51.014;16.992;2023-06-22T04:45:20;17.40;;;11.60;;
72198;SDS011;60103;51.014;16.992;2023-06-22T04:47:49;16.50;;;11.70;;
72198;SDS011;60103;51.014;16.992;2023-06-22T04:50:19;17.30;;;12.90;;
72198;SDS011;60103;51.014;16.992;2023-06-22T04:52:50;18.80;;;12.60;;
72198;SDS011;60103;51.014;16.992;2023-06-22T04:55:19;18.80;;;12.80;;
72198;SDS011;60103;51.014;16.992;2023-06-22T04:57:48;18.90;;;13.00;;
72198;SDS011;60103;51.014;16.992;2023-06-22T05:00:17;21.20;;;13.00;;
72198;SDS011;60103;51.014;16.992;2023-06-22T05:02:51;22.30;;;14.40;;
72198;SDS011;60103;51.014;16.992;2023-06-22T05:05:27;19.70;;;13.40;;
72198;SDS011;60103;51.014;16.992;2023-06-22T05:07:56;19.60;;;12.60;;
72198;SDS011;60103;51.014;16.992;2023-06-22T05:10:28;21.10;;;14.30;;
72198;SDS011;60103;51.014;16.992;2023-06-22T05:12:58;21.50;;;13.40;;
72198;SDS011;60103;51.014;16.992;2023-06-22T05:15:27;19.20;;;13.70;;
72198;SDS011;60103;51.014;16.992;2023-06-22T05:17:58;22.20;;;14.10;;
72198;SDS011;60103;51.014;16.992;2023-06-22T05:20:28;22.80;;;14.40;;
72198;SDS011;60103;51.014;16.992;2023-06-22T05:22:57;20.40;;;14.20;;
72198;SDS011;60103;51.014;16.992;2023-06-22T05:25:26;23.50;;;15.10;;
72198;SDS011;60103;51.014;16.992;2023-06-22T05:27:55;22.20;;;15.50;;
72198;SDS011;60103;51.014;16.992;2023-06-22T05:30:24;21.40;;;14.80;;
72198;SDS011;60103;51.014;16.992;2023-06-22T05:32:53;22.70;;;17.10;;
72198;SDS011;60103;51.014;16.992;2023-06-22T05:35:21;21.70;;;15.80;;
72198;SDS011;60103;51.014;16.992;2023-06-22T05:37:50;22.00;;;15.50;;
72198;SDS011;60103;51.014;16.992;2023-06-22T05:40:20;23.90;;;14.90;;
72198;SDS011;60103;51.014;16.992;2023-06-22T05:42:48;20.70;;;14.80;;
72198;SDS011;60103;51.014;16.992;2023-06-22T05:45:17;19.80;;;14.60;;
72198;SDS011;60103;51.014;16.992;2023-06-22T05:47:46;17.40;;;12.40;;
72198;SDS011;60103;51.014;16.992;2023-06-22T05:50:15;18.00;;;13.10;;
72198;SDS011;60103;51.014;16.992;2023-06-22T05:52:45;18.50;;;10.70;;
72198;SDS011;60103;51.014;16.992;2023-06-22T05:55:14;17.00;;;10.90;;
72198;SDS011;60103;51.014;16.992;2023-06-22T05:57:44;18.20;;;11.10;;
72198;SDS011;60103;51.014;16.992;2023-06-22T06:00:14;17.20;;;11.40;;
72198;SDS011;60103;51.014;16.992;2023-06-22T06:02:44;18.20;;;10.50;;
72198;SDS011;60103;51.014;16.992;2023-06-22T06:05:16;16.10;;;10.80;;
72198;SDS011;60103;51.014;16.992;2023-06-22T06:07:45;15.90;;;10.80;;
72198;SDS011;60103;51.014;16.992;2023-06-22T06:10:15;16.90;;;10.70;;
72198;SDS011;60103;51.014;16.992;2023-06-22T06:12:44;17.20;;;10.30;;
72198;SDS011;60103;51.014;16.992;2023-06-22T06:15:13;15.10;;;9.50;;
72198;SDS011;60103;51.014;16.992;2023-06-22T06:17:47;15.20;;;9.60;;
72198;SDS011;60103;51.014;16.992;2023-06-22T06:20:21;14.50;;;9.20;;
72198;SDS011;60103;51.014;16.992;2023-06-22T06:22:51;15.40;;;9.60;;
72198;SDS011;60103;51.014;16.992;2023-06-22T06:25:20;14.00;;;8.70;;
72198;SDS011;60103;51.014;16.992;2023-06-22T06:27:50;13.20;;;8.80;;
72198;SDS011;60103;51.014;16.992;2023-06-22T06:30:21;14.20;;;9.30;;
72198;SDS011;60103;51.014;16.992;2023-06-22T06:32:51;14.00;;;8.30;;
72198;SDS011;60103;51.014;16.992;2023-06-22T06:35:20;15.90;;;9.10;;
72198;SDS011;60103;51.014;16.992;2023-06-22T06:37:50;14.20;;;9.20;;
72198;SDS011;60103;51.014;16.992;2023-06-22T06:40:19;15.50;;;9.50;;
72198;SDS011;60103;51.014;16.992;2023-06-22T06:42:51;17.00;;;9.90;;
72198;SDS011;60103;51.014;16.992;2023-06-22T06:45:20;13.60;;;9.10;;
72198;SDS011;60103;51.014;16.992;2023-06-22T06:47:51;15.20;;;9.90;;
72198;SDS011;60103;51.014;16.992;2023-06-22T06:50:21;14.40;;;9.50;;
72198;SDS011;60103;51.014;16.992;2023-06-22T06:52:50;15.20;;;9.80;;
72198;SDS011;60103;51.014;16.992;2023-06-22T06:55:19;14.30;;;9.70;;
72198;SDS011;60103;51.014;16.992;2023-06-22T06:57:48;15.40;;;10.20;;
72198;SDS011;60103;51.014;16.992;2023-06-22T07:00:18;16.10;;;10.70;;
72198;SDS011;60103;51.014;16.992;2023-06-22T07:02:47;15.10;;;10.90;;
72198;SDS011;60103;51.014;16.992;2023-06-22T07:05:17;16.80;;;11.30;;
72198;SDS011;60103;51.014;16.992;2023-06-22T07:07:46;14.90;;;10.30;;
72198;SDS011;60103;51.014;16.992;2023-06-22T07:10:16;15.00;;;9.90;;
72198;SDS011;60103;51.014;16.992;2023-06-22T07:12:44;14.90;;;10.60;;
72198;SDS011;60103;51.014;16.992;2023-06-22T07:15:13;16.30;;;11.30;;
72198;SDS011;60103;51.014;16.992;2023-06-22T07:17:42;15.10;;;10.30;;
72198;SDS011;60103;51.014;16.992;2023-06-22T07:20:12;15.40;;;9.60;;
72198;SDS011;60103;51.014;16.992;2023-06-22T07:22:42;15.50;;;10.80;;
72198;SDS011;60103;51.014;16.992;2023-06-22T07:25:12;14.50;;;9.90;;
72198;SDS011;60103;51.014;16.992;2023-06-22T07:27:56;16.00;;;10.50;;
72198;SDS011;60103;51.014;16.992;2023-06-22T07:30:27;15.00;;;10.90;;
72198;SDS011;60103;51.014;16.992;2023-06-22T07:32:57;14.00;;;10.20;;
72198;SDS011;60103;51.014;16.992;2023-06-22T07:35:26;14.80;;;9.90;;
72198;SDS011;60103;51.014;16.992;2023-06-22T07:37:56;15.40;;;9.90;;
72198;SDS011;60103;51.014;16.992;2023-06-22T07:40:25;15.70;;;10.10;;
72198;SDS011;60103;51.014;16.992;2023-06-22T07:42:55;15.40;;;10.70;;
72198;SDS011;60103;51.014;16.992;2023-06-22T07:45:24;14.20;;;9.40;;
72198;SDS011;60103;51.014;16.992;2023-06-22T07:47:52;14.60;;;9.60;;
72198;SDS011;60103;51.014;16.992;2023-06-22T07:50:21;14.20;;;9.90;;
72198;SDS011;60103;51.014;16.992;2023-06-22T07:52:50;14.30;;;9.10;;
72198;SDS011;60103;51.014;16.992;2023-06-22T07:55:21;14.30;;;9.70;;
72198;SDS011;60103;51.014;16.992;2023-06-22T07:57:49;14.00;;;9.70;;
72198;SDS011;60103;51.014;16.992;2023-06-22T08:00:21;14.70;;;10.40;;
72198;SDS011;60103;51.014;16.992;2023-06-22T08:02:50;14.30;;;9.80;;
72198;SDS011;60103;51.014;16.992;2023-06-22T08:05:19;15.30;;;10.30;;
72198;SDS011;60103;51.014;16.992;2023-06-22T08:08:01;14.40;;;9.70;;
72198;SDS011;60103;51.014;16.992;2023-06-22T08:10:30;14.50;;;10.50;;
72198;SDS011;60103;51.014;16.992;2023-06-22T08:12:59;15.00;;;10.10;;
72198;SDS011;60103;51.014;16.992;2023-06-22T08:15:27;14.50;;;10.10;;
72198;SDS011;60103;51.014;16.992;2023-06-22T08:17:57;15.70;;;10.00;;
72198;SDS011;60103;51.014;16.992;2023-06-22T08:20:27;14.70;;;10.00;;
72198;SDS011;60103;51.014;16.992;2023-06-22T08:22:56;13.40;;;9.00;;
72198;SDS011;60103;51.014;16.992;2023-06-22T08:25:26;13.60;;;9.70;;
72198;SDS011;60103;51.014;16.992;2023-06-22T08:27:55;14.20;;;9.20;;
72198;SDS011;60103;51.014;16.992;2023-06-22T08:30:24;13.40;;;8.80;;
72198;SDS011;60103;51.014;16.992;2023-06-22T08:32:52;12.90;;;9.40;;
72198;SDS011;60103;51.014;16.992;2023-06-22T08:35:23;15.40;;;9.90;;
72198;SDS011;60103;51.014;16.992;2023-06-22T08:37:52;14.00;;;9.40;;
72198;SDS011;60103;51.014;16.992;2023-06-22T08:40:25;13.50;;;9.20;;
72198;SDS011;60103;51.014;16.992;2023-06-22T08:42:53;13.60;;;9.50;;
72198;SDS011;60103;51.014;16.992;2023-06-22T08:45:22;14.90;;;9.80;;
72198;SDS011;60103;51.014;16.992;2023-06-22T08:47:51;13.80;;;9.70;;
72198;SDS011;60103;51.014;16.992;2023-06-22T08:50:20;14.10;;;9.90;;
72198;SDS011;60103;51.014;16.992;2023-06-22T08:52:48;14.50;;;9.50;;
72198;SDS011;60103;51.014;16.992;2023-06-22T08:55:17;14.10;;;9.30;;
72198;SDS011;60103;51.014;16.992;2023-06-22T08:57:46;14.00;;;9.80;;
72198;SDS011;60103;51.014;16.992;2023-06-22T09:00:14;14.30;;;9.20;;
72198;SDS011;60103;51.014;16.992;2023-06-22T09:02:46;15.00;;;9.90;;
72198;SDS011;60103;51.014;16.992;2023-06-22T09:05:16;13.20;;;9.00;;
72198;SDS011;60103;51.014;16.992;2023-06-22T09:07:46;15.30;;;9.00;;
72198;SDS011;60103;51.014;16.992;2023-06-22T09:10:15;13.30;;;8.70;;
72198;SDS011;60103;51.014;16.992;2023-06-22T09:12:44;12.60;;;8.70;;
72198;SDS011;60103;51.014;16.992;2023-06-22T09:15:13;13.10;;;8.70;;
72198;SDS011;60103;51.014;16.992;2023-06-22T09:17:45;13.80;;;9.50;;
72198;SDS011;60103;51.014;16.992;2023-06-22T09:20:15;13.90;;;9.70;;
72198;SDS011;60103;51.014;16.992;2023-06-22T09:22:44;12.10;;;7.50;;
72198;SDS011;60103;51.014;16.992;2023-06-22T09:25:13;12.80;;;9.20;;
72198;SDS011;60103;51.014;16.992;2023-06-22T09:27:42;12.90;;;8.90;;
72198;SDS011;60103;51.014;16.992;2023-06-22T09:30:11;12.70;;;9.30;;
72198;SDS011;60103;51.014;16.992;2023-06-22T09:32:40;11.70;;;8.00;;
72198;SDS011;60103;51.014;16.992;2023-06-22T09:35:09;12.80;;;8.30;;
72198;SDS011;60103;51.014;16.992;2023-06-22T09:37:40;13.20;;;8.30;;
72198;SDS011;60103;51.014;16.992;2023-06-22T09:40:09;14.10;;;8.80;;
72198;SDS011;60103;51.014;16.992;2023-06-22T09:42:39;13.40;;;8.60;;
72198;SDS011;60103;51.014;16.992;2023-06-22T09:45:08;13.70;;;9.10;;
72198;SDS011;60103;51.014;16.992;2023-06-22T09:47:37;12.40;;;8.70;;
72198;SDS011;60103;51.014;16.992;2023-06-22T09:50:06;12.40;;;6.90;;
72198;SDS011;60103;51.014;16.992;2023-06-22T09:52:36;13.70;;;8.10;;
72198;SDS011;60103;51.014;16.992;2023-06-22T09:55:07;13.50;;;8.90;;
72198;SDS011;60103;51.014;16.992;2023-06-22T09:57:36;13.80;;;9.10;;
72198;SDS011;60103;51.014;16.992;2023-06-22T10:00:05;12.70;;;8.40;;
72198;SDS011;60103;51.014;16.992;2023-06-22T10:02:37;11.60;;;8.10;;
72198;SDS011;60103;51.014;16.992;2023-06-22T10:05:06;13.50;;;7.70;;
72198;SDS011;60103;51.014;16.992;2023-06-22T10:07:36;13.70;;;8.90;;
72198;SDS011;60103;51.014;16.992;2023-06-22T10:10:11;13.60;;;9.10;;
72198;SDS011;60103;51.014;16.992;2023-06-22T10:12:45;13.90;;;8.40;;
72198;SDS011;60103;51.014;16.992;2023-06-22T10:15:15;12.20;;;8.10;;
72198;SDS011;60103;51.014;16.992;2023-06-22T10:17:45;12.80;;;8.30;;
72198;SDS011;60103;51.014;16.992;2023-06-22T10:20:14;14.40;;;9.00;;
72198;SDS011;60103;51.014;16.992;2023-06-22T10:22:44;16.70;;;10.90;;
72198;SDS011;60103;51.014;16.992;2023-06-22T10:25:16;21.40;;;12.30;;
72198;SDS011;60103;51.014;16.992;2023-06-22T10:27:45;17.50;;;10.60;;
72198;SDS011;60103;51.014;16.992;2023-06-22T10:30:14;13.30;;;8.00;;
72198;SDS011;60103;51.014;16.992;2023-06-22T10:32:44;13.60;;;8.70;;
72198;SDS011;60103;51.014;16.992;2023-06-22T10:35:13;13.70;;;8.30;;
72198;SDS011;60103;51.014;16.992;2023-06-22T10:37:44;13.20;;;7.80;;
72198;SDS011;60103;51.014;16.992;2023-06-22T10:40:14;11.40;;;7.60;;
72198;SDS011;60103;51.014;16.992;2023-06-22T10:42:45;12.40;;;8.30;;
72198;SDS011;60103;51.014;16.992;2023-06-22T10:45:13;12.20;;;8.40;;
72198;SDS011;60103;51.014;16.992;2023-06-22T10:47:42;11.70;;;7.40;;
72198;SDS011;60103;51.014;16.992;2023-06-22T10:50:11;12.40;;;7.50;;
72198;SDS011;60103;51.014;16.992;2023-06-22T10:52:40;13.50;;;8.10;;
72198;SDS011;60103;51.014;16.992;2023-06-22T10:55:10;14.00;;;7.90;;
72198;SDS011;60103;51.014;16.992;2023-06-22T10:57:39;10.90;;;7.50;;
72198;SDS011;60103;51.014;16.992;2023-06-22T11:00:12;12.20;;;7.50;;
72198;SDS011;60103;51.014;16.992;2023-06-22T11:02:41;11.70;;;6.80;;
72198;SDS011;60103;51.014;16.992;2023-06-22T11:05:11;10.70;;;6.90;;
72198;SDS011;60103;51.014;16.992;2023-06-22T11:07:43;11.30;;;7.20;;
72198;SDS011;60103;51.014;16.992;2023-06-22T11:10:13;10.30;;;6.70;;
72198;SDS011;60103;51.014;16.992;2023-06-22T11:12:43;11.30;;;7.00;;
72198;SDS011;60103;51.014;16.992;2023-06-22T11:15:12;11.10;;;6.40;;
72198;SDS011;60103;51.014;16.992;2023-06-22T11:17:41;11.90;;;7.40;;
72198;SDS011;60103;51.014;16.992;2023-06-22T11:20:09;10.70;;;6.70;;
72198;SDS011;60103;51.014;16.992;2023-06-22T11:22:40;9.80;;;6.20;;
72198;SDS011;60103;51.014;16.992;2023-06-22T11:25:09;11.00;;;6.80;;
72198;SDS011;60103;51.014;16.992;2023-06-22T11:27:40;11.30;;;6.60;;
72198;SDS011;60103;51.014;16.992;2023-06-22T11:30:08;10.80;;;6.40;;
72198;SDS011;60103;51.014;16.992;2023-06-22T11:32:38;10.80;;;6.80;;
72198;SDS011;60103;51.014;16.992;2023-06-22T11:35:07;10.30;;;6.20;;
72198;SDS011;60103;51.014;16.992;2023-06-22T11:37:36;10.30;;;6.70;;
72198;SDS011;60103;51.014;16.992;2023-06-22T11:40:05;12.20;;;6.40;;
72198;SDS011;60103;51.014;16.992;2023-06-22T11:42:38;10.50;;;6.30;;
72198;SDS011;60103;51.014;16.992;2023-06-22T11:45:07;11.90;;;7.20;;
72198;SDS011;60103;51.014;16.992;2023-06-22T11:47:36;10.10;;;6.20;;
72198;SDS011;60103;51.014;16.992;2023-06-22T11:50:05;10.60;;;5.90;;
72198;SDS011;60103;51.014;16.992;2023-06-22T11:52:35;11.30;;;6.00;;
72198;SDS011;60103;51.014;16.992;2023-06-22T11:55:04;10.00;;;6.10;;
72198;SDS011;60103;51.014;16.992;2023-06-22T11:57:38;10.00;;;6.00;;
72198;SDS011;60103;51.014;16.992;2023-06-22T12:00:08;11.10;;;6.40;;
72198;SDS011;60103;51.014;16.992;2023-06-22T12:02:45;10.90;;;6.00;;
72198;SDS011;60103;51.014;16.992;2023-06-22T12:05:14;10.50;;;6.60;;
72198;SDS011;60103;51.014;16.992;2023-06-22T12:07:43;10.60;;;6.10;;
72198;SDS011;60103;51.014;16.992;2023-06-22T12:10:12;9.70;;;5.90;;
72198;SDS011;60103;51.014;16.992;2023-06-22T12:12:41;11.30;;;6.10;;
72198;SDS011;60103;51.014;16.992;2023-06-22T12:15:10;9.90;;;5.70;;
72198;SDS011;60103;51.014;16.992;2023-06-22T12:17:40;10.70;;;5.90;;
72198;SDS011;60103;51.014;16.992;2023-06-22T12:20:09;10.40;;;6.00;;
72198;SDS011;60103;51.014;16.992;2023-06-22T12:22:38;10.10;;;5.70;;
72198;SDS011;60103;51.014;16.992;2023-06-22T12:25:09;11.80;;;6.30;;
72198;SDS011;60103;51.014;16.992;2023-06-22T12:27:38;9.70;;;6.00;;
72198;SDS011;60103;51.014;16.992;2023-06-22T12:30:08;9.80;;;5.50;;
72198;SDS011;60103;51.014;16.992;2023-06-22T12:32:37;10.10;;;5.30;;
72198;SDS011;60103;51.014;16.992;2023-06-22T12:35:06;9.40;;;5.30;;
72198;SDS011;60103;51.014;16.992;2023-06-22T12:37:40;9.60;;;5.20;;
72198;SDS011;60103;51.014;16.992;2023-06-22T12:40:10;9.10;;;5.20;;
72198;SDS011;60103;51.014;16.992;2023-06-22T12:42:40;12.50;;;5.10;;
72198;SDS011;60103;51.014;16.992;2023-06-22T12:45:10;10.10;;;6.20;;
72198;SDS011;60103;51.014;16.992;2023-06-22T12:47:40;9.60;;;5.30;;
72198;SDS011;60103;51.014;16.992;2023-06-22T12:50:10;9.80;;;5.30;;
72198;SDS011;60103;51.014;16.992;2023-06-22T12:52:39;9.00;;;5.30;;
72198;SDS011;60103;51.014;16.992;2023-06-22T12:55:09;9.10;;;5.30;;
72198;SDS011;60103;51.014;16.992;2023-06-22T12:57:39;9.30;;;5.30;;
72198;SDS011;60103;51.014;16.992;2023-06-22T13:00:08;9.50;;;5.50;;
72198;SDS011;60103;51.014;16.992;2023-06-22T13:02:38;8.70;;;5.00;;
72198;SDS011;60103;51.014;16.992;2023-06-22T13:05:07;9.70;;;5.30;;
72198;SDS011;60103;51.014;16.992;2023-06-22T13:07:37;9.80;;;5.10;;
72198;SDS011;60103;51.014;16.992;2023-06-22T13:10:06;8.90;;;5.00;;
72198;SDS011;60103;51.014;16.992;2023-06-22T13:12:35;8.40;;;4.80;;
72198;SDS011;60103;51.014;16.992;2023-06-22T13:15:04;8.60;;;5.00;;
72198;SDS011;60103;51.014;16.992;2023-06-22T13:17:34;10.10;;;5.00;;
72198;SDS011;60103;51.014;16.992;2023-06-22T13:20:03;8.90;;;4.20;;
72198;SDS011;60103;51.014;16.992;2023-06-22T13:22:33;8.50;;;4.90;;
72198;SDS011;60103;51.014;16.992;2023-06-22T13:25:11;8.60;;;5.00;;
72198;SDS011;60103;51.014;16.992;2023-06-22T13:27:41;8.70;;;4.80;;
72198;SDS011;60103;51.014;16.992;2023-06-22T13:30:10;9.00;;;5.20;;
72198;SDS011;60103;51.014;16.992;2023-06-22T13:32:42;9.10;;;5.30;;
72198;SDS011;60103;51.014;16.992;2023-06-22T13:35:11;9.20;;;5.50;;
72198;SDS011;60103;51.014;16.992;2023-06-22T13:37:40;9.50;;;5.40;;
72198;SDS011;60103;51.014;16.992;2023-06-22T13:40:09;10.40;;;5.50;;
72198;SDS011;60103;51.014;16.992;2023-06-22T13:42:38;10.60;;;5.10;;
72198;SDS011;60103;51.014;16.992;2023-06-22T13:45:08;8.90;;;5.00;;
72198;SDS011;60103;51.014;16.992;2023-06-22T13:47:37;9.10;;;5.10;;
72198;SDS011;60103;51.014;16.992;2023-06-22T13:50:06;9.30;;;5.20;;
72198;SDS011;60103;51.014;16.992;2023-06-22T13:52:35;10.70;;;4.50;;
72198;SDS011;60103;51.014;16.992;2023-06-22T13:55:05;9.20;;;5.10;;
72198;SDS011;60103;51.014;16.992;2023-06-22T13:57:35;9.80;;;5.50;;
72198;SDS011;60103;51.014;16.992;2023-06-22T14:00:04;9.60;;;5.20;;
72198;SDS011;60103;51.014;16.992;2023-06-22T14:02:38;10.20;;;5.20;;
72198;SDS011;60103;51.014;16.992;2023-06-22T14:05:09;9.90;;;5.80;;
72198;SDS011;60103;51.014;16.992;2023-06-22T14:07:40;11.40;;;5.60;;
72198;SDS011;60103;51.014;16.992;2023-06-22T14:10:09;9.40;;;4.50;;
72198;SDS011;60103;51.014;16.992;2023-06-22T14:12:39;9.70;;;4.90;;
72198;SDS011;60103;51.014;16.992;2023-06-22T14:15:11;9.10;;;5.20;;
72198;SDS011;60103;51.014;16.992;2023-06-22T14:17:40;10.10;;;5.40;;
72198;SDS011;60103;51.014;16.992;2023-06-22T14:20:09;10.60;;;5.40;;
72198;SDS011;60103;51.014;16.992;2023-06-22T14:22:38;9.10;;;4.90;;
72198;SDS011;60103;51.014;16.992;2023-06-22T14:25:08;10.60;;;5.60;;
72198;SDS011;60103;51.014;16.992;2023-06-22T14:27:37;11.20;;;5.20;;
72198;SDS011;60103;51.014;16.992;2023-06-22T14:30:06;10.00;;;5.00;;
72198;SDS011;60103;51.014;16.992;2023-06-22T14:32:35;10.60;;;5.50;;
72198;SDS011;60103;51.014;16.992;2023-06-22T14:35:04;8.90;;;5.10;;
72198;SDS011;60103;51.014;16.992;2023-06-22T14:37:34;9.30;;;5.00;;
72198;SDS011;60103;51.014;16.992;2023-06-22T14:40:03;9.40;;;4.90;;
72198;SDS011;60103;51.014;16.992;2023-06-22T14:42:33;9.10;;;5.00;;